Estación de Petorca

Ultimos registro cada 15 minutos 95
Estación Fecha / Hora Temperatura Humedad Lluvia Velocidad Dirección Radiación Presion
95 Petorca 01-09-2026 23:30 14 88 0 0 4 0,6 986,3
94 Petorca 01-09-2026 23:15 14,2 87,4 0 0 11 0,6 986,6
93 Petorca 01-09-2026 23:00 13,8 89,6 0 0 14 0,6 986,6
92 Petorca 01-09-2026 22:45 13,7 88,8 0 0 27 0,6 986,5
91 Petorca 01-09-2026 22:30 13,8 89,2 0 0 10 0,6 986,6
90 Petorca 01-09-2026 22:15 13,8 89 0 0 119 0,6 986,6
89 Petorca 01-09-2026 22:00 14,6 85,4 0 0 111 0,6 986,7
88 Petorca 01-09-2026 21:45 14,5 85,3 0 0 24 0,6 986,8
87 Petorca 01-09-2026 21:30 15 83,7 0 0 24 0,6 986,8
86 Petorca 01-09-2026 21:15 15,3 81,7 0 0 7 0,6 986,7
85 Petorca 01-09-2026 21:00 15,6 80,6 0 0 7 0,6 986,7
84 Petorca 01-09-2026 20:45 15,6 80,1 0 0 1 0,6 986,5
83 Petorca 01-09-2026 20:30 16 78,5 0 0 74 0,6 986,4
82 Petorca 01-09-2026 20:15 16,4 76,6 0 0 258 0,6 986,4
81 Petorca 01-09-2026 20:00 16,6 75,6 0 0 236 0,6 985,8
80 Petorca 01-09-2026 19:45 16 80 0 0 327 0,6 985,5
79 Petorca 01-09-2026 19:30 16,4 77,4 0 0 306 0,6 985,4
78 Petorca 01-09-2026 19:15 16,8 77,9 0 0,5 306 0,6 985,4
77 Petorca 01-09-2026 19:00 18,1 71,1 0 1,5 239 0,6 985,4
76 Petorca 01-09-2026 18:45 18 72,1 0 1 236 0,6 985,1
75 Petorca 01-09-2026 18:30 18,6 68,8 0 0 254 8,1 984,7
74 Petorca 01-09-2026 18:15 18,7 73,8 0 1 218 14,4 984,6
73 Petorca 01-09-2026 18:00 19,6 65,9 0 1 219 28,1 984,5
72 Petorca 01-09-2026 17:45 20 64,8 0 1,5 230 50,6 984,6
71 Petorca 01-09-2026 17:30 20,9 63,9 0 2 229 95,6 984,4
70 Petorca 01-09-2026 17:15 21,2 61,3 0 1,5 215 138,1 984,5
69 Petorca 01-09-2026 17:00 21,8 60,2 0 1,5 227 170,6 984,6
68 Petorca 01-09-2026 16:45 22,7 57 0 1,5 230 300,6 984,4
67 Petorca 01-09-2026 16:30 23,3 61,1 0 2 234 301,9 984,3
66 Petorca 01-09-2026 16:15 23,8 56,2 0 2 226 335,6 984,3
65 Petorca 01-09-2026 16:00 23,9 53 0 2,5 223 245,6 984,4
64 Petorca 01-09-2026 15:45 24,5 52,5 0 2,5 226 526,9 984,5
63 Petorca 01-09-2026 15:30 25 51 0 2,5 230 603,1 984,4
62 Petorca 01-09-2026 15:15 24,6 49,8 0 2,5 226 430,6 984,5
61 Petorca 01-09-2026 15:00 25,3 52,1 0 1,5 232 644,4 984,6
60 Petorca 01-09-2026 14:45 25,4 47,7 0 2 218 693,1 984,8
59 Petorca 01-09-2026 14:30 24,9 47,9 0 2 222 609,4 985,1
58 Petorca 01-09-2026 14:15 25,3 47,5 0 1 230 803,1 985
57 Petorca 01-09-2026 14:00 25,1 47,1 0 1 232 596,9 985,3
56 Petorca 01-09-2026 13:45 24,6 47,9 0 0,5 223 826,9 985,7
55 Petorca 01-09-2026 13:30 23,8 49,7 0 1,5 232 663,1 986,1
54 Petorca 01-09-2026 13:15 24 53,5 0 1 232 561,9 986,3
53 Petorca 01-09-2026 13:00 23,7 47,5 0 0,5 226 380,6 986,8
52 Petorca 01-09-2026 12:45 24 47,1 0 0 73 875,6 987,1
51 Petorca 01-09-2026 12:30 23,5 46,4 0 0 312 969,4 987,4
50 Petorca 01-09-2026 12:15 22,2 51,1 0 0 234 966,9 987,7
49 Petorca 01-09-2026 12:00 22,1 51,4 0 0 111 781,9 987,8
48 Petorca 01-09-2026 11:45 21,5 59 0 0 150 596,9 988
47 Petorca 01-09-2026 11:30 21,6 57,5 0 0 267 763,1 988
46 Petorca 01-09-2026 11:15 20 62,4 0 0 246 495,6 988,3
45 Petorca 01-09-2026 11:00 18,7 64,5 0 0,5 194 633,1 988,4
44 Petorca 01-09-2026 10:45 18,8 65,1 0 0 174 669,4 988,6
43 Petorca 01-09-2026 10:30 18,5 67,2 0 0 194 681,9 989,2
42 Petorca 01-09-2026 10:15 17,3 69,9 0 0 159 601,9 989,4
41 Petorca 01-09-2026 10:00 16,6 69,7 0 0 222 410,6 989,5
40 Petorca 01-09-2026 09:45 14,4 76,9 0 0 220 599,4 989,7
39 Petorca 01-09-2026 09:30 14,2 79,9 0 0 209 330,6 989,9
38 Petorca 01-09-2026 09:15 13,7 80,3 0 0 241 203,1 989,8
37 Petorca 01-09-2026 09:00 14,6 78,9 0 0 15 275,6 990
36 Petorca 01-09-2026 08:45 12 90,2 0 0 14 141,9 989,9
35 Petorca 01-09-2026 08:30 10,9 92,4 0 0 358 125,6 989,8
34 Petorca 01-09-2026 08:15 10 94,1 0 0 357 85,6 989,5
33 Petorca 01-09-2026 08:00 9,2 95,2 0 0 4 48,1 989,3
32 Petorca 01-09-2026 07:45 8,7 95,2 0 0 34 29,4 989
31 Petorca 01-09-2026 07:30 8,5 95,1 0 0 1 15,6 989,2
30 Petorca 01-09-2026 07:15 8,3 95,1 0 0 340 4,4 989,3
29 Petorca 01-09-2026 07:00 8,3 94,7 0 0 209 1,9 989,1
28 Petorca 01-09-2026 06:45 8,5 94,2 0 0 194 0,6 989,1
27 Petorca 01-09-2026 06:30 8,2 95,7 0 0 22 0,6 988,9
26 Petorca 01-09-2026 06:15 7,7 96,5 0 0 37 0,6 989
25 Petorca 01-09-2026 06:00 7 96,2 0 0 28 0,6 988,9
24 Petorca 01-09-2026 05:45 7 95,9 0 0 6 0,6 989,1
23 Petorca 01-09-2026 05:30 6,8 95,9 0 0 29 0,6 989,3
22 Petorca 01-09-2026 05:15 6,7 95,4 0 0 7 0,6 989,1
21 Petorca 01-09-2026 05:00 7 95 0 0 3 0,6 989,4
20 Petorca 01-09-2026 04:45 7,7 94,7 0 0 351 0,6 989,1
19 Petorca 01-09-2026 04:30 7,6 94,3 0 0 37 0,6 989,3
18 Petorca 01-09-2026 04:15 7,7 94,7 0 0 37 0,6 989,3
17 Petorca 01-09-2026 04:00 7,6 94,7 0 0 21 0,6 989,4
16 Petorca 01-09-2026 03:45 7,2 94,5 0 0 53 0,6 989,5
15 Petorca 01-09-2026 03:30 7,3 94,3 0 0 39 0,6 989,6
14 Petorca 01-09-2026 03:15 7,4 93,4 0 0 320 0,6 989,9
13 Petorca 01-09-2026 03:00 7,7 92,4 0 0 25 0,6 990,1
12 Petorca 01-09-2026 02:45 8,1 92 0 0 7 0,6 990,5
11 Petorca 01-09-2026 02:30 8,4 90,8 0 0 15 0,6 990,4
10 Petorca 01-09-2026 02:15 9,2 90,2 0 0 53 0,6 990,6
9 Petorca 01-09-2026 02:00 9,2 91,2 0 0 21 0,6 990,7
8 Petorca 01-09-2026 01:45 8,9 90,8 0 0 24 0,6 991
7 Petorca 01-09-2026 01:30 9 90,4 0 0 25 0,6 991,2
6 Petorca 01-09-2026 01:15 9 90,7 0 0 27 0,6 991,4
5 Petorca 01-09-2026 01:00 9,6 88,9 0 0 29 0,6 991,5
4 Petorca 01-09-2026 00:45 10,2 87,9 0 0 7 0,6 991,4
3 Petorca 01-09-2026 00:30 10,4 86,9 0 0 331 0,6 991,2
2 Petorca 01-09-2026 00:15 10,5 85,1 0 0 352 0,6 991,4
1 Petorca 01-09-2026 00:00 10,9 85,1 0 0 11 0,6 991,3